sensor_id;sensor_type;location;lat;lon;timestamp;temperature;humidity
61000;SHT31;46879;45.658;11.814;2023-02-08T00:02:57;15.60;66.66
61000;SHT31;46879;45.658;11.814;2023-02-08T00:07:57;15.61;66.64
61000;SHT31;46879;45.658;11.814;2023-02-08T00:12:58;15.60;66.79
61000;SHT31;46879;45.658;11.814;2023-02-08T00:17:59;15.58;66.86
61000;SHT31;46879;45.658;11.814;2023-02-08T00:22:59;15.60;66.78
61000;SHT31;46879;45.658;11.814;2023-02-08T00:28:00;15.60;66.80
61000;SHT31;46879;45.658;11.814;2023-02-08T00:33:01;15.60;66.79
61000;SHT31;46879;45.658;11.814;2023-02-08T00:38:01;15.60;66.96
61000;SHT31;46879;45.658;11.814;2023-02-08T00:43:02;15.58;66.90
61000;SHT31;46879;45.658;11.814;2023-02-08T00:48:03;15.57;67.10
61000;SHT31;46879;45.658;11.814;2023-02-08T00:53:03;15.57;66.88
61000;SHT31;46879;45.658;11.814;2023-02-08T00:58:04;15.55;67.20
61000;SHT31;46879;45.658;11.814;2023-02-08T01:03:04;15.55;66.99
61000;SHT31;46879;45.658;11.814;2023-02-08T01:08:05;15.57;67.37
61000;SHT31;46879;45.658;11.814;2023-02-08T01:13:06;15.54;67.16
61000;SHT31;46879;45.658;11.814;2023-02-08T01:18:06;15.51;67.43
61000;SHT31;46879;45.658;11.814;2023-02-08T01:23:07;15.53;67.37
61000;SHT31;46879;45.658;11.814;2023-02-08T01:28:07;15.50;67.74
61000;SHT31;46879;45.658;11.814;2023-02-08T01:33:08;15.49;67.81
61000;SHT31;46879;45.658;11.814;2023-02-08T01:38:08;15.47;67.96
61000;SHT31;46879;45.658;11.814;2023-02-08T01:43:24;15.51;67.60
61000;SHT31;46879;45.658;11.814;2023-02-08T01:48:37;15.49;67.67
61000;SHT31;46879;45.658;11.814;2023-02-08T01:53:40;15.50;67.80
61000;SHT31;46879;45.658;11.814;2023-02-08T01:58:47;15.49;67.79
61000;SHT31;46879;45.658;11.814;2023-02-08T02:03:49;15.49;67.97
61000;SHT31;46879;45.658;11.814;2023-02-08T02:14:18;15.47;67.98
61000;SHT31;46879;45.658;11.814;2023-02-08T02:20:36;15.49;67.66
61000;SHT31;46879;45.658;11.814;2023-02-08T02:48:37;15.44;67.72
61000;SHT31;46879;45.658;11.814;2023-02-08T02:53:54;15.43;67.78
61000;SHT31;46879;45.658;11.814;2023-02-08T02:59:03;15.42;68.13
61000;SHT31;46879;45.658;11.814;2023-02-08T03:15:58;15.46;67.70
61000;SHT31;46879;45.658;11.814;2023-02-08T03:21:11;15.43;67.91
61000;SHT31;46879;45.658;11.814;2023-02-08T03:27:18;15.42;68.11
61000;SHT31;46879;45.658;11.814;2023-02-08T03:32:03;15.39;68.14
61000;SHT31;46879;45.658;11.814;2023-02-08T03:37:14;15.39;68.36
61000;SHT31;46879;45.658;11.814;2023-02-08T03:42:22;15.37;68.39
61000;SHT31;46879;45.658;11.814;2023-02-08T03:47:30;15.39;68.21
61000;SHT31;46879;45.658;11.814;2023-02-08T03:52:33;15.39;68.01
61000;SHT31;46879;45.658;11.814;2023-02-08T04:03:09;15.39;67.93
61000;SHT31;46879;45.658;11.814;2023-02-08T04:08:11;15.39;67.91
61000;SHT31;46879;45.658;11.814;2023-02-08T04:13:12;15.37;68.12
61000;SHT31;46879;45.658;11.814;2023-02-08T04:18:13;15.37;68.15
61000;SHT31;46879;45.658;11.814;2023-02-08T04:23:13;15.36;68.27
61000;SHT31;46879;45.658;11.814;2023-02-08T04:28:14;15.37;68.15
61000;SHT31;46879;45.658;11.814;2023-02-08T04:33:14;15.36;68.17
61000;SHT31;46879;45.658;11.814;2023-02-08T04:38:15;15.34;68.31
61000;SHT31;46879;45.658;11.814;2023-02-08T04:43:15;15.34;68.16
61000;SHT31;46879;45.658;11.814;2023-02-08T04:48:17;15.33;68.18
61000;SHT31;46879;45.658;11.814;2023-02-08T04:53:17;15.34;68.16
61000;SHT31;46879;45.658;11.814;2023-02-08T04:58:18;15.33;68.43
61000;SHT31;46879;45.658;11.814;2023-02-08T05:03:19;15.32;68.27
61000;SHT31;46879;45.658;11.814;2023-02-08T05:08:19;15.30;68.35
61000;SHT31;46879;45.658;11.814;2023-02-08T05:13:20;15.33;68.38
61000;SHT31;46879;45.658;11.814;2023-02-08T05:18:20;15.34;68.27
61000;SHT31;46879;45.658;11.814;2023-02-08T05:23:21;15.30;68.28
61000;SHT31;46879;45.658;11.814;2023-02-08T05:28:22;15.32;68.11
61000;SHT31;46879;45.658;11.814;2023-02-08T05:33:22;15.30;68.30
61000;SHT31;46879;45.658;11.814;2023-02-08T05:38:23;15.27;68.22
61000;SHT31;46879;45.658;11.814;2023-02-08T05:43:23;15.29;68.17
61000;SHT31;46879;45.658;11.814;2023-02-08T05:48:24;15.29;68.35
61000;SHT31;46879;45.658;11.814;2023-02-08T05:53:25;15.29;68.16
61000;SHT31;46879;45.658;11.814;2023-02-08T05:58:25;15.29;68.48
61000;SHT31;46879;45.658;11.814;2023-02-08T06:03:26;15.26;68.42
61000;SHT31;46879;45.658;11.814;2023-02-08T06:08:27;15.29;68.41
61000;SHT31;46879;45.658;11.814;2023-02-08T06:13:28;15.26;68.50
61000;SHT31;46879;45.658;11.814;2023-02-08T06:18:28;15.26;68.65
61000;SHT31;46879;45.658;11.814;2023-02-08T06:23:29;15.25;68.76
61000;SHT31;46879;45.658;11.814;2023-02-08T06:28:29;15.19;69.11
61000;SHT31;46879;45.658;11.814;2023-02-08T06:33:30;15.19;68.68
61000;SHT31;46879;45.658;11.814;2023-02-08T06:38:30;15.19;68.23
61000;SHT31;46879;45.658;11.814;2023-02-08T06:43:31;15.16;67.81
61000;SHT31;46879;45.658;11.814;2023-02-08T06:48:31;15.16;67.60
61000;SHT31;46879;45.658;11.814;2023-02-08T06:53:33;15.25;68.58
61000;SHT31;46879;45.658;11.814;2023-02-08T06:58:34;15.22;69.84
61000;SHT31;46879;45.658;11.814;2023-02-08T07:03:35;15.23;69.10
61000;SHT31;46879;45.658;11.814;2023-02-08T07:08:35;15.23;68.25
61000;SHT31;46879;45.658;11.814;2023-02-08T07:13:37;15.26;68.40
61000;SHT31;46879;45.658;11.814;2023-02-08T07:18:37;15.26;68.15
61000;SHT31;46879;45.658;11.814;2023-02-08T07:23:39;15.27;67.23
61000;SHT31;46879;45.658;11.814;2023-02-08T07:28:40;15.29;66.08
61000;SHT31;46879;45.658;11.814;2023-02-08T07:33:41;15.30;64.64
61000;SHT31;46879;45.658;11.814;2023-02-08T07:38:42;15.32;64.65
61000;SHT31;46879;45.658;11.814;2023-02-08T07:43:42;15.33;64.20
61000;SHT31;46879;45.658;11.814;2023-02-08T07:48:43;15.32;63.22
61000;SHT31;46879;45.658;11.814;2023-02-08T07:53:44;15.34;63.45
61000;SHT31;46879;45.658;11.814;2023-02-08T07:58:44;15.37;63.06
61000;SHT31;46879;45.658;11.814;2023-02-08T08:03:45;15.39;62.90
61000;SHT31;46879;45.658;11.814;2023-02-08T08:08:46;15.39;62.96
61000;SHT31;46879;45.658;11.814;2023-02-08T08:13:47;15.40;62.65
61000;SHT31;46879;45.658;11.814;2023-02-08T08:18:48;15.43;62.39
61000;SHT31;46879;45.658;11.814;2023-02-08T08:23:48;15.42;62.07
61000;SHT31;46879;45.658;11.814;2023-02-08T08:28:49;15.43;61.50
61000;SHT31;46879;45.658;11.814;2023-02-08T08:33:49;15.46;62.28
61000;SHT31;46879;45.658;11.814;2023-02-08T08:38:50;15.44;62.07
61000;SHT31;46879;45.658;11.814;2023-02-08T08:43:51;15.44;62.45
61000;SHT31;46879;45.658;11.814;2023-02-08T08:48:52;15.46;62.54
61000;SHT31;46879;45.658;11.814;2023-02-08T08:53:53;15.49;62.74
61000;SHT31;46879;45.658;11.814;2023-02-08T08:58:53;15.46;62.77
61000;SHT31;46879;45.658;11.814;2023-02-08T09:03:54;15.44;62.76
61000;SHT31;46879;45.658;11.814;2023-02-08T09:08:54;15.47;63.07
61000;SHT31;46879;45.658;11.814;2023-02-08T09:13:55;15.49;62.95
61000;SHT31;46879;45.658;11.814;2023-02-08T09:18:59;15.49;63.10
61000;SHT31;46879;45.658;11.814;2023-02-08T09:24:01;15.50;63.10
61000;SHT31;46879;45.658;11.814;2023-02-08T09:29:02;16.32;60.87
61000;SHT31;46879;45.658;11.814;2023-02-08T09:34:04;16.84;59.80
61000;SHT31;46879;45.658;11.814;2023-02-08T09:39:22;17.14;59.13
61000;SHT31;46879;45.658;11.814;2023-02-08T09:44:53;17.53;58.31
61000;SHT31;46879;45.658;11.814;2023-02-08T09:50:08;17.78;57.86
61000;SHT31;46879;45.658;11.814;2023-02-08T10:00:43;19.04;54.42
61000;SHT31;46879;45.658;11.814;2023-02-08T10:05:44;19.22;53.81
61000;SHT31;46879;45.658;11.814;2023-02-08T10:33:01;18.91;54.80
61000;SHT31;46879;45.658;11.814;2023-02-08T10:38:28;18.60;55.76
61000;SHT31;46879;45.658;11.814;2023-02-08T10:43:44;19.04;54.60
61000;SHT31;46879;45.658;11.814;2023-02-08T10:54:13;18.33;56.67
61000;SHT31;46879;45.658;11.814;2023-02-08T10:59:32;17.84;58.10
61000;SHT31;46879;45.658;11.814;2023-02-08T11:04:33;17.88;57.69
61000;SHT31;46879;45.658;11.814;2023-02-08T11:09:34;18.79;55.36
61000;SHT31;46879;45.658;11.814;2023-02-08T11:14:39;19.14;54.69
61000;SHT31;46879;45.658;11.814;2023-02-08T11:19:41;19.34;54.35
61000;SHT31;46879;45.658;11.814;2023-02-08T11:24:58;19.54;54.17
61000;SHT31;46879;45.658;11.814;2023-02-08T11:30:15;19.79;53.82
61000;SHT31;46879;45.658;11.814;2023-02-08T11:40:36;20.11;53.25
61000;SHT31;46879;45.658;11.814;2023-02-08T11:45:38;20.44;52.47
61000;SHT31;46879;45.658;11.814;2023-02-08T11:50:38;19.89;53.74
61000;SHT31;46879;45.658;11.814;2023-02-08T11:55:39;19.20;55.25
61000;SHT31;46879;45.658;11.814;2023-02-08T12:00:40;18.87;56.66
61000;SHT31;46879;45.658;11.814;2023-02-08T12:05:49;18.63;57.23
61000;SHT31;46879;45.658;11.814;2023-02-08T12:17:07;18.28;57.36
61000;SHT31;46879;45.658;11.814;2023-02-08T12:22:31;18.15;57.66
61000;SHT31;46879;45.658;11.814;2023-02-08T12:27:57;18.09;58.30
61000;SHT31;46879;45.658;11.814;2023-02-08T12:50:21;17.77;58.50
61000;SHT31;46879;45.658;11.814;2023-02-08T12:55:33;17.67;58.51
61000;SHT31;46879;45.658;11.814;2023-02-08T13:00:35;17.64;58.40
61000;SHT31;46879;45.658;11.814;2023-02-08T13:05:44;17.59;58.40
61000;SHT31;46879;45.658;11.814;2023-02-08T13:10:51;17.51;58.35
61000;SHT31;46879;45.658;11.814;2023-02-08T13:16:19;17.49;58.42
61000;SHT31;46879;45.658;11.814;2023-02-08T13:21:29;17.43;58.64
61000;SHT31;46879;45.658;11.814;2023-02-08T13:26:34;17.40;58.38
61000;SHT31;46879;45.658;11.814;2023-02-08T13:31:40;17.34;58.50
61000;SHT31;46879;45.658;11.814;2023-02-08T13:36:54;17.29;58.90
61000;SHT31;46879;45.658;11.814;2023-02-08T13:41:57;17.25;58.71
61000;SHT31;46879;45.658;11.814;2023-02-08T13:46:57;17.23;58.95
61000;SHT31;46879;45.658;11.814;2023-02-08T13:51:58;17.15;58.59
61000;SHT31;46879;45.658;11.814;2023-02-08T13:56:59;17.12;58.76
61000;SHT31;46879;45.658;11.814;2023-02-08T14:12:59;17.02;59.15
61000;SHT31;46879;45.658;11.814;2023-02-08T14:18:01;16.99;58.98
61000;SHT31;46879;45.658;11.814;2023-02-08T14:23:22;16.99;58.94
61000;SHT31;46879;45.658;11.814;2023-02-08T14:28:36;16.94;59.02
61000;SHT31;46879;45.658;11.814;2023-02-08T14:33:53;16.92;58.88
61000;SHT31;46879;45.658;11.814;2023-02-08T14:49:44;16.82;58.49
61000;SHT31;46879;45.658;11.814;2023-02-08T14:54:58;16.78;58.76
61000;SHT31;46879;45.658;11.814;2023-02-08T15:00:15;16.77;58.62
61000;SHT31;46879;45.658;11.814;2023-02-08T15:05:27;16.74;58.43
61000;SHT31;46879;45.658;11.814;2023-02-08T15:10:30;16.70;58.29
61000;SHT31;46879;45.658;11.814;2023-02-08T15:15:42;16.70;58.59
61000;SHT31;46879;45.658;11.814;2023-02-08T15:20:44;16.65;58.45
61000;SHT31;46879;45.658;11.814;2023-02-08T15:26:01;16.65;58.71
61000;SHT31;46879;45.658;11.814;2023-02-08T15:31:05;16.61;58.41
61000;SHT31;46879;45.658;11.814;2023-02-08T15:36:17;16.57;58.53
61000;SHT31;46879;45.658;11.814;2023-02-08T15:41:28;16.53;58.48
61000;SHT31;46879;45.658;11.814;2023-02-08T15:46:29;16.47;58.33
61000;SHT31;46879;45.658;11.814;2023-02-08T15:51:30;16.47;58.45
61000;SHT31;46879;45.658;11.814;2023-02-08T15:56:34;16.49;58.41
61000;SHT31;46879;45.658;11.814;2023-02-08T16:01:36;16.44;58.56
61000;SHT31;46879;45.658;11.814;2023-02-08T16:06:43;16.40;58.51
61000;SHT31;46879;45.658;11.814;2023-02-08T16:11:49;16.39;58.61
61000;SHT31;46879;45.658;11.814;2023-02-08T16:16:55;16.36;58.65
61000;SHT31;46879;45.658;11.814;2023-02-08T16:22:23;16.33;58.88
61000;SHT31;46879;45.658;11.814;2023-02-08T16:27:29;16.27;58.74
61000;SHT31;46879;45.658;11.814;2023-02-08T16:32:35;16.29;58.83
61000;SHT31;46879;45.658;11.814;2023-02-08T16:37:38;16.25;58.66
61000;SHT31;46879;45.658;11.814;2023-02-08T16:42:39;16.23;58.43
61000;SHT31;46879;45.658;11.814;2023-02-08T16:47:53;16.22;58.54
61000;SHT31;46879;45.658;11.814;2023-02-08T16:53:01;16.22;58.19
61000;SHT31;46879;45.658;11.814;2023-02-08T16:58:02;16.17;58.12
61000;SHT31;46879;45.658;11.814;2023-02-08T17:03:03;16.19;57.91
61000;SHT31;46879;45.658;11.814;2023-02-08T17:08:07;16.13;57.77
61000;SHT31;46879;45.658;11.814;2023-02-08T17:13:10;16.13;57.69
61000;SHT31;46879;45.658;11.814;2023-02-08T17:18:11;16.13;57.77
61000;SHT31;46879;45.658;11.814;2023-02-08T17:23:12;16.09;57.72
61000;SHT31;46879;45.658;11.814;2023-02-08T17:28:18;16.06;57.78
61000;SHT31;46879;45.658;11.814;2023-02-08T17:33:19;16.08;57.50
61000;SHT31;46879;45.658;11.814;2023-02-08T17:38:20;16.08;57.75
61000;SHT31;46879;45.658;11.814;2023-02-08T17:43:21;16.02;57.53
61000;SHT31;46879;45.658;11.814;2023-02-08T17:48:22;16.05;58.02
61000;SHT31;46879;45.658;11.814;2023-02-08T17:53:23;16.04;57.78
61000;SHT31;46879;45.658;11.814;2023-02-08T17:58:23;16.02;57.51
61000;SHT31;46879;45.658;11.814;2023-02-08T18:03:24;16.02;57.47
61000;SHT31;46879;45.658;11.814;2023-02-08T18:08:25;15.99;57.45
61000;SHT31;46879;45.658;11.814;2023-02-08T18:13:26;15.99;57.44
61000;SHT31;46879;45.658;11.814;2023-02-08T18:18:26;15.98;57.48
61000;SHT31;46879;45.658;11.814;2023-02-08T18:23:27;15.95;57.58
61000;SHT31;46879;45.658;11.814;2023-02-08T18:28:28;15.95;57.90
61000;SHT31;46879;45.658;11.814;2023-02-08T18:33:28;15.97;57.93
61000;SHT31;46879;45.658;11.814;2023-02-08T18:38:29;15.95;58.11
61000;SHT31;46879;45.658;11.814;2023-02-08T18:43:30;15.92;58.22
61000;SHT31;46879;45.658;11.814;2023-02-08T18:48:31;15.94;58.61
61000;SHT31;46879;45.658;11.814;2023-02-08T18:53:35;15.91;58.65
61000;SHT31;46879;45.658;11.814;2023-02-08T18:58:36;15.89;60.13
61000;SHT31;46879;45.658;11.814;2023-02-08T19:03:37;15.89;61.44
61000;SHT31;46879;45.658;11.814;2023-02-08T19:08:39;15.91;61.50
61000;SHT31;46879;45.658;11.814;2023-02-08T19:13:40;15.88;61.81
61000;SHT31;46879;45.658;11.814;2023-02-08T19:18:41;15.88;61.97
61000;SHT31;46879;45.658;11.814;2023-02-08T19:23:49;15.89;61.95
61000;SHT31;46879;45.658;11.814;2023-02-08T19:28:56;15.85;61.90
61000;SHT31;46879;45.658;11.814;2023-02-08T19:34:00;15.81;61.89
61000;SHT31;46879;45.658;11.814;2023-02-08T19:39:03;15.82;61.86
61000;SHT31;46879;45.658;11.814;2023-02-08T19:44:06;15.87;61.86
61000;SHT31;46879;45.658;11.814;2023-02-08T19:49:07;15.84;61.91
61000;SHT31;46879;45.658;11.814;2023-02-08T19:54:12;15.88;61.80
61000;SHT31;46879;45.658;11.814;2023-02-08T19:59:20;15.85;61.47
61000;SHT31;46879;45.658;11.814;2023-02-08T20:04:22;15.85;61.28
61000;SHT31;46879;45.658;11.814;2023-02-08T20:09:23;15.85;61.09
61000;SHT31;46879;45.658;11.814;2023-02-08T20:14:25;15.85;60.98
61000;SHT31;46879;45.658;11.814;2023-02-08T20:19:28;15.88;60.86
61000;SHT31;46879;45.658;11.814;2023-02-08T20:24:28;15.88;60.70
61000;SHT31;46879;45.658;11.814;2023-02-08T20:29:30;15.84;60.56
61000;SHT31;46879;45.658;11.814;2023-02-08T20:34:30;15.84;60.57
61000;SHT31;46879;45.658;11.814;2023-02-08T20:39:33;15.85;60.34
61000;SHT31;46879;45.658;11.814;2023-02-08T20:44:33;15.82;60.08
61000;SHT31;46879;45.658;11.814;2023-02-08T20:49:34;15.84;60.27
61000;SHT31;46879;45.658;11.814;2023-02-08T20:54:36;15.84;60.37
61000;SHT31;46879;45.658;11.814;2023-02-08T20:59:38;15.84;59.92
61000;SHT31;46879;45.658;11.814;2023-02-08T21:04:38;15.81;60.82
61000;SHT31;46879;45.658;11.814;2023-02-08T21:09:39;15.82;61.19
61000;SHT31;46879;45.658;11.814;2023-02-08T21:14:40;15.80;61.55
61000;SHT31;46879;45.658;11.814;2023-02-08T21:19:42;15.82;61.61
61000;SHT31;46879;45.658;11.814;2023-02-08T21:24:43;15.81;61.85
61000;SHT31;46879;45.658;11.814;2023-02-08T21:29:44;15.80;61.90
61000;SHT31;46879;45.658;11.814;2023-02-08T21:34:44;15.78;62.12
61000;SHT31;46879;45.658;11.814;2023-02-08T21:39:45;15.80;62.23
61000;SHT31;46879;45.658;11.814;2023-02-08T21:44:46;15.74;62.45
61000;SHT31;46879;45.658;11.814;2023-02-08T21:49:46;15.78;62.48
61000;SHT31;46879;45.658;11.814;2023-02-08T21:55:05;15.80;62.57
61000;SHT31;46879;45.658;11.814;2023-02-08T22:00:08;15.78;62.71
61000;SHT31;46879;45.658;11.814;2023-02-08T22:05:10;15.77;62.66
61000;SHT31;46879;45.658;11.814;2023-02-08T22:10:13;15.77;62.71
61000;SHT31;46879;45.658;11.814;2023-02-08T22:15:17;15.72;63.11
61000;SHT31;46879;45.658;11.814;2023-02-08T22:20:18;15.74;63.13
61000;SHT31;46879;45.658;11.814;2023-02-08T22:25:19;15.72;63.05
61000;SHT31;46879;45.658;11.814;2023-02-08T22:30:20;15.71;63.06
61000;SHT31;46879;45.658;11.814;2023-02-08T22:35:21;15.71;62.83
61000;SHT31;46879;45.658;11.814;2023-02-08T22:40:21;15.72;62.93
61000;SHT31;46879;45.658;11.814;2023-02-08T22:45:22;15.72;62.94
61000;SHT31;46879;45.658;11.814;2023-02-08T22:50:22;15.68;62.99
61000;SHT31;46879;45.658;11.814;2023-02-08T22:55:23;15.67;63.09
61000;SHT31;46879;45.658;11.814;2023-02-08T23:00:24;15.68;62.94
61000;SHT31;46879;45.658;11.814;2023-02-08T23:05:24;15.67;63.02
61000;SHT31;46879;45.658;11.814;2023-02-08T23:10:25;15.65;63.05
61000;SHT31;46879;45.658;11.814;2023-02-08T23:15:25;15.64;63.17
61000;SHT31;46879;45.658;11.814;2023-02-08T23:20:26;15.65;63.17
61000;SHT31;46879;45.658;11.814;2023-02-08T23:25:27;15.64;63.25
61000;SHT31;46879;45.658;11.814;2023-02-08T23:30:27;15.61;63.38
61000;SHT31;46879;45.658;11.814;2023-02-08T23:35:28;15.61;63.32
61000;SHT31;46879;45.658;11.814;2023-02-08T23:40:28;15.61;63.53
61000;SHT31;46879;45.658;11.814;2023-02-08T23:45:29;15.61;63.50
61000;SHT31;46879;45.658;11.814;2023-02-08T23:50:30;15.61;63.43
61000;SHT31;46879;45.658;11.814;2023-02-08T23:55:30;15.61;63.50
